Close sub menu
NASDAQ
NY-Nasdaq Composite 25838,943 -- -- (23:16)
Stijgers 1 dag
Dalers 1 dag
Indices 1 dag
AEX* 1.026,63-0,5%
Midkap* 1.061,86-0,2%
AMS Next 20®* 1.670,910,0%
FTSE100 10.369,96-0,7%
Dow Jones 49.910,59--
NASDAQ 25.838,943--
S&P500 7.365,12--
S&P Future 7.397,00+0,1%
BEL20** 5.555,15+2,1%
CAC 40** 8.299,42+2,9%
DAX 24.860,91-0,2%
* real time    ** slotkoers
AandelenKoersVorige+/-+/- %HoogLaagVolumeTijd
Adobe 250,17 250,17 -- -- -- -- 10.414 22:00
Advanced Micro Devices 421,47 421,39 -- -- -- -- 648.236 22:00
Airbnb 139,82 139,88 -- -- -- -- 3.245 22:00
Align Technology 174,00 173,94 -- -- -- -- 20 22:00
Alphabet 395,07 395,14 -- -- -- -- 210.444 22:00
Alphabet 397,82 398,04 -- -- -- -- 315.019 22:00
Amazon.com 274,95 274,99 -- -- -- -- 145.639 22:00
American Electric Power Company 132,53 132,56 -- -- -- -- 2.300 22:00
Amgen 331,11 331,11 -- -- -- -- 905 22:00
Analog Devices 415,66 415,63 -- -- -- -- 6.347 22:00
Ansys 374,30 374,30 -- -- -- -- 0 22:00
Apple 287,46 287,51 -- -- -- -- 113.307 22:00
Applied Materials 428,50 428,62 -- -- -- -- 28.655 22:00
ASML Holding NV 1.544,74 1.544,74 -- -- -- -- 51.672 22:00
AstraZeneca PLC 194,94 194,94 -- -- 195,79 189,39 294.174 00:00
Atlassian Corp 88,80 88,80 -- -- -- -- 5.247 22:00
Autodesk 243,10 243,08 -- -- -- -- 1.277 22:00
Automatic Data Processing 207,13 207,20 -- -- -- -- 191 22:00
Baker Hughes Company 66,65 66,67 -- -- -- -- 3.286 22:00
Biogen 190,67 190,68 -- -- -- -- 77 22:00
Booking Holdings Inc. 168,31 168,32 -- -- -- -- 6.094 22:00
Broadcom Inc. 425,44 425,44 -- -- -- -- 67.711 22:00
Cadence Design Systems 354,90 354,90 -- -- -- -- 1.894 22:00
Charter Communications 156,43 156,52 -- -- -- -- 1.038 22:00
Cintas Corp 169,31 169,36 -- -- -- -- 114 22:00
Cisco Systems 91,63 91,64 -- -- -- -- 18.008 22:00
Cognizant Technology Solutions Corp 51,33 51,33 -- -- -- -- 2.635 22:00
Comcast Corp 26,42 26,44 -- -- -- -- 11.501 22:00
Constellation Energy Corp 322,74 322,78 -- -- -- -- 10.448 22:00
Copart 33,36 33,39 -- -- -- -- 1.707 22:00
CoStar Group 34,07 34,07 -- -- -- -- 740 22:00
Costco Wholesale Corp 995,75 995,75 -- -- -- -- 1.613 22:00
CrowdStrike Holdings 467,94 468,07 -- -- -- -- 23.026 22:00
CSX Corp 45,58 45,60 -- -- -- -- 854 22:00
Datadog 143,58 143,71 -- -- -- -- 219.385 22:00
DexCom 60,34 60,36 -- -- -- -- 1.478 22:00
Diamondback Energy 195,10 195,08 -- -- -- -- 1.533 22:00
Dollar Tree 96,50 96,51 -- -- -- -- 116 22:00
eBay 108,10 108,15 -- -- -- -- 1.315 22:00
Electronic Arts 200,76 200,79 -- -- -- -- 269 22:00
Enphase Energy 35,79 35,80 -- -- -- -- 12.453 22:00
Exelon Corp 44,99 45,02 -- -- -- -- 459 22:00
Fastenal Co 44,70 44,71 -- -- -- -- 643 22:00
Fortinet 90,00 89,95 -- -- -- -- 180.127 22:00
Gilead Sciences 136,30 136,30 -- -- -- -- 3.747 22:00
GlobalFoundries 72,30 72,30 -- -- -- -- 11.754 22:00
Honeywell International 216,82 216,86 -- -- -- -- 3.956 22:00
IDEXX Laboratories 579,23 579,23 -- -- -- -- 57 22:00
Illumina 142,56 142,58 -- -- -- -- 336 22:00
Intel Corp 113,01 113,01 -- -- -- -- 2.098.617 22:00
Intuit 388,55 388,55 -- -- -- -- 4.886 22:00
Intuitive Surgical 451,73 451,73 -- -- -- -- 1.138 22:00
JD.com 30,70 30,69 -- -- -- -- 111.206 22:00
Keurig Dr Pepper 28,56 28,56 -- -- -- -- 1.986 22:00
KLA Corp 1.816,28 1.816,29 -- -- -- -- 3.762 22:00
Kraft Heinz Company (The) 23,07 23,07 -- -- -- -- 30.279 22:00
Lam Research Corp 297,17 297,17 -- -- -- -- 49.455 22:00
Lucid Group Inc 6,21 6,19 -- -- -- -- 55.501 22:00
lululemon athletica 132,03 132,04 -- -- -- -- 8.119 22:00
Marriott International 359,06 359,06 -- -- -- -- 975 22:00
Marvell Technology 172,15 172,15 -- -- -- -- 153.056 22:00
MercadoLibre 1.841,14 1.841,14 -- -- -- -- 1.367 22:00
Meta Platforms 612,88 612,88 -- -- -- -- 88.836 22:00
Microchip Technology 102,97 102,92 -- -- -- -- 12.502 22:00
Micron Technology Inc 666,80 666,59 -- -- -- -- 770.660 22:00
Microsoft Corp 413,87 413,96 -- -- -- -- 176.976 22:00
Moderna 48,75 48,79 -- -- -- -- 68.482 22:00
Mondelez International 61,87 61,87 -- -- -- -- 625 22:00
Monster Beverage Corp 77,20 77,20 -- -- -- -- 808 22:00
Netflix Inc. 88,22 88,27 -- -- -- -- 102.771 22:00
NVIDIA Corp 207,67 207,83 -- -- -- -- 1.767.411 22:00
NXP Semiconductors NV 303,63 303,55 -- -- -- -- 2.964 22:00
Old Dominion Freight Line 200,52 200,62 -- -- -- -- 52 22:00
O'Reilly Automotive Inc 94,76 94,78 -- -- -- -- 964 22:00
PACCAR 116,45 116,51 -- -- -- -- 88 22:00
Palo Alto Networks Inc 183,59 183,68 -- -- -- -- 35.247 22:00
Paychex 91,38 91,38 -- -- -- -- 253 22:00
PayPal Holdings 46,26 46,27 -- -- -- -- 63.936 22:00
PDD Holdings 102,25 102,31 -- -- -- -- 250.971 22:00
Pepsico 155,91 155,96 -- -- -- -- 2.877 22:00
QUALCOMM 192,66 192,57 -- -- -- -- 244.665 22:00
Regeneron Pharmaceuticals 720,84 721,05 -- -- -- -- 115 22:00
Rivian Automotive 14,49 14,48 -- -- -- -- 110.847 22:00
Ross Stores 228,88 228,91 -- -- -- -- 94 22:00
Seagen 228,89 228,74 -- -- -- -- 0 22:00
SiriusXM Holdings Inc 26,68 26,68 -- -- -- -- 1.282 22:00
Starbucks Corp 106,43 106,44 -- -- -- -- 3.275 22:00
Synopsys 504,42 504,42 -- -- -- -- 2.316 22:00
Tesla 398,53 398,73 -- -- -- -- 909.245 22:00
Texas Instruments 289,44 289,44 -- -- -- -- 6.421 22:00
T-Mobile US 193,12 193,16 -- -- -- -- 1.781 22:00
Verisk Analytics 170,89 170,94 -- -- -- -- 70 22:00
Vertex Pharmaceuticals 427,52 427,65 -- -- -- -- 440 22:00
Walgreens Boots Alliance 11,98 11,98 -- -- -- -- 0 22:00
Warner Bros Discovery 27,15 27,20 -- -- -- -- 5.210 22:00
Workday 122,63 122,63 -- -- -- -- 4.951 22:00
Xcel Energy 80,57 80,55 -- -- -- -- 58 22:00
Zoom Communications Inc 105,10 105,13 -- -- -- -- 3.027 22:00
Zscaler 138,83 138,83 -- -- -- -- 15.073 22:00
Powered by

Schakel browser notificaties in

Schakel browser notificaties in om meldingen te ontvangen op dit apparaat.

Browser notificaties inschakelen

U heeft browser notificaties voor fd.nl eerder geweigerd. Ga naar browser instellingen en sta browser notificaties toe voor fd.nl. De precieze handelingen zijn afhankelijk van uw browser.

U volgt een onderwerp

Wanneer deze zoekterm in een artikel voorkomt, zult u deze terugvinden in Mijn nieuws onder ‘Eurobonds’.

Wilt u via de FD App meldingen ontvangen voor dit onderwerp?

Wilt u via de FD App meldingen ontvangen voor dit onderwerp?

Ons privacy statement is van toepassing.

Meldingen

Wanneer deze zoekterm in een artikel voorkomt, zult u deze terugvinden in Mijn nieuws onder ‘Eurobonds’.

Wilt u via de FD App meldingen ontvangen voor dit onderwerp?

Wilt u via de FD App meldingen ontvangen voor dit onderwerp?